sensor_id;sensor_type;location;lat;lon;timestamp;P1;durP1;ratioP1;P2;durP2;ratioP2
59922;SDS011;45778;51.142;3.732;2023-02-21T00:01:46;48.10;;;23.38;;
59922;SDS011;45778;51.142;3.732;2023-02-21T00:04:30;49.67;;;25.08;;
59922;SDS011;45778;51.142;3.732;2023-02-21T00:07:14;43.40;;;23.40;;
59922;SDS011;45778;51.142;3.732;2023-02-21T00:09:58;34.95;;;19.10;;
59922;SDS011;45778;51.142;3.732;2023-02-21T00:12:42;36.20;;;19.30;;
59922;SDS011;45778;51.142;3.732;2023-02-21T00:15:26;43.47;;;21.73;;
59922;SDS011;45778;51.142;3.732;2023-02-21T00:18:10;41.83;;;21.17;;
59922;SDS011;45778;51.142;3.732;2023-02-21T00:20:54;49.67;;;25.30;;
59922;SDS011;45778;51.142;3.732;2023-02-21T00:23:38;45.25;;;22.70;;
59922;SDS011;45778;51.142;3.732;2023-02-21T00:26:22;48.47;;;23.58;;
59922;SDS011;45778;51.142;3.732;2023-02-21T00:29:06;39.42;;;19.88;;
59922;SDS011;45778;51.142;3.732;2023-02-21T00:31:51;38.78;;;19.88;;
59922;SDS011;45778;51.142;3.732;2023-02-21T00:34:36;43.45;;;21.33;;
59922;SDS011;45778;51.142;3.732;2023-02-21T00:37:20;37.33;;;21.73;;
59922;SDS011;45778;51.142;3.732;2023-02-21T00:40:05;35.53;;;19.38;;
59922;SDS011;45778;51.142;3.732;2023-02-21T00:42:49;44.10;;;21.67;;
59922;SDS011;45778;51.142;3.732;2023-02-21T00:45:33;46.15;;;23.33;;
59922;SDS011;45778;51.142;3.732;2023-02-21T00:48:21;43.67;;;22.60;;
59922;SDS011;45778;51.142;3.732;2023-02-21T00:51:06;43.72;;;21.33;;
59922;SDS011;45778;51.142;3.732;2023-02-21T00:53:50;47.75;;;22.33;;
59922;SDS011;45778;51.142;3.732;2023-02-21T00:56:34;46.92;;;21.65;;
59922;SDS011;45778;51.142;3.732;2023-02-21T00:59:19;42.40;;;20.63;;
59922;SDS011;45778;51.142;3.732;2023-02-21T01:02:03;42.72;;;19.98;;
59922;SDS011;45778;51.142;3.732;2023-02-21T01:04:47;39.10;;;17.92;;
59922;SDS011;45778;51.142;3.732;2023-02-21T01:07:31;41.38;;;19.02;;
59922;SDS011;45778;51.142;3.732;2023-02-21T01:10:16;44.42;;;18.85;;
59922;SDS011;45778;51.142;3.732;2023-02-21T01:13:00;39.15;;;20.15;;
59922;SDS011;45778;51.142;3.732;2023-02-21T01:15:44;45.10;;;20.75;;
59922;SDS011;45778;51.142;3.732;2023-02-21T01:18:28;46.13;;;21.92;;
59922;SDS011;45778;51.142;3.732;2023-02-21T01:21:13;49.22;;;21.20;;
59922;SDS011;45778;51.142;3.732;2023-02-21T01:23:59;39.05;;;20.70;;
59922;SDS011;45778;51.142;3.732;2023-02-21T01:26:43;44.78;;;20.83;;
59922;SDS011;45778;51.142;3.732;2023-02-21T01:29:27;41.13;;;20.92;;
59922;SDS011;45778;51.142;3.732;2023-02-21T01:32:12;52.00;;;22.80;;
59922;SDS011;45778;51.142;3.732;2023-02-21T01:34:57;41.45;;;19.77;;
59922;SDS011;45778;51.142;3.732;2023-02-21T01:37:41;52.90;;;22.05;;
59922;SDS011;45778;51.142;3.732;2023-02-21T01:40:25;46.25;;;21.77;;
59922;SDS011;45778;51.142;3.732;2023-02-21T01:43:20;42.45;;;20.20;;
59922;SDS011;45778;51.142;3.732;2023-02-21T01:46:13;56.35;;;22.77;;
59922;SDS011;45778;51.142;3.732;2023-02-21T01:49:01;43.00;;;19.83;;
59922;SDS011;45778;51.142;3.732;2023-02-21T01:51:52;46.33;;;21.58;;
59922;SDS011;45778;51.142;3.732;2023-02-21T01:54:39;43.00;;;19.90;;
59922;SDS011;45778;51.142;3.732;2023-02-21T01:57:26;48.47;;;21.17;;
59922;SDS011;45778;51.142;3.732;2023-02-21T02:00:11;48.92;;;20.85;;
59922;SDS011;45778;51.142;3.732;2023-02-21T02:05:56;47.70;;;20.63;;
59922;SDS011;45778;51.142;3.732;2023-02-21T02:08:42;49.07;;;20.50;;
59922;SDS011;45778;51.142;3.732;2023-02-21T02:16:47;50.72;;;20.48;;
59922;SDS011;45778;51.142;3.732;2023-02-21T02:22:28;47.58;;;20.58;;
59922;SDS011;45778;51.142;3.732;2023-02-21T02:35:28;41.42;;;18.02;;
59922;SDS011;45778;51.142;3.732;2023-02-21T02:43:33;42.00;;;18.25;;
59922;SDS011;45778;51.142;3.732;2023-02-21T02:48:38;43.47;;;18.98;;
59922;SDS011;45778;51.142;3.732;2023-02-21T02:51:11;47.83;;;19.42;;
59922;SDS011;45778;51.142;3.732;2023-02-21T02:53:39;53.90;;;21.25;;
59922;SDS011;45778;51.142;3.732;2023-02-21T02:56:06;55.28;;;20.23;;
59922;SDS011;45778;51.142;3.732;2023-02-21T02:58:41;56.97;;;19.85;;
59922;SDS011;45778;51.142;3.732;2023-02-21T03:09:13;57.22;;;21.13;;
59922;SDS011;45778;51.142;3.732;2023-02-21T03:14:39;64.32;;;21.60;;
59922;SDS011;45778;51.142;3.732;2023-02-21T03:17:15;53.80;;;18.73;;
59922;SDS011;45778;51.142;3.732;2023-02-21T03:19:44;45.47;;;18.23;;
59922;SDS011;45778;51.142;3.732;2023-02-21T03:22:13;47.92;;;18.48;;
59922;SDS011;45778;51.142;3.732;2023-02-21T03:24:43;46.42;;;17.58;;
59922;SDS011;45778;51.142;3.732;2023-02-21T03:27:12;45.95;;;15.77;;
59922;SDS011;45778;51.142;3.732;2023-02-21T03:29:38;38.55;;;15.43;;
59922;SDS011;45778;51.142;3.732;2023-02-21T03:32:07;43.55;;;16.67;;
59922;SDS011;45778;51.142;3.732;2023-02-21T03:35:05;40.13;;;15.23;;
59922;SDS011;45778;51.142;3.732;2023-02-21T03:40:16;38.38;;;15.68;;
59922;SDS011;45778;51.142;3.732;2023-02-21T03:42:48;39.28;;;15.07;;
59922;SDS011;45778;51.142;3.732;2023-02-21T03:45:14;39.72;;;16.00;;
59922;SDS011;45778;51.142;3.732;2023-02-21T03:47:40;42.55;;;16.48;;
59922;SDS011;45778;51.142;3.732;2023-02-21T03:50:06;43.72;;;15.60;;
59922;SDS011;45778;51.142;3.732;2023-02-21T03:52:32;43.78;;;16.10;;
59922;SDS011;45778;51.142;3.732;2023-02-21T03:54:57;40.90;;;16.17;;
59922;SDS011;45778;51.142;3.732;2023-02-21T03:57:23;47.00;;;16.30;;
59922;SDS011;45778;51.142;3.732;2023-02-21T03:59:49;43.92;;;16.13;;
59922;SDS011;45778;51.142;3.732;2023-02-21T04:02:15;47.13;;;16.35;;
59922;SDS011;45778;51.142;3.732;2023-02-21T04:04:40;43.15;;;16.95;;
59922;SDS011;45778;51.142;3.732;2023-02-21T04:07:07;57.83;;;18.90;;
59922;SDS011;45778;51.142;3.732;2023-02-21T04:09:34;54.95;;;17.15;;
59922;SDS011;45778;51.142;3.732;2023-02-21T04:11:59;51.88;;;17.27;;
59922;SDS011;45778;51.142;3.732;2023-02-21T04:14:25;50.67;;;17.25;;
59922;SDS011;45778;51.142;3.732;2023-02-21T04:16:51;52.30;;;17.83;;
59922;SDS011;45778;51.142;3.732;2023-02-21T04:19:16;44.83;;;15.98;;
59922;SDS011;45778;51.142;3.732;2023-02-21T04:21:42;46.17;;;16.77;;
59922;SDS011;45778;51.142;3.732;2023-02-21T04:24:08;47.65;;;17.67;;
59922;SDS011;45778;51.142;3.732;2023-02-21T04:26:34;44.38;;;17.40;;
59922;SDS011;45778;51.142;3.732;2023-02-21T04:29:00;50.22;;;16.52;;
59922;SDS011;45778;51.142;3.732;2023-02-21T04:31:26;49.47;;;18.83;;
59922;SDS011;45778;51.142;3.732;2023-02-21T04:33:51;59.10;;;18.80;;
59922;SDS011;45778;51.142;3.732;2023-02-21T04:36:17;48.28;;;16.45;;
59922;SDS011;45778;51.142;3.732;2023-02-21T04:38:43;47.95;;;16.77;;
59922;SDS011;45778;51.142;3.732;2023-02-21T04:41:09;51.53;;;18.00;;
59922;SDS011;45778;51.142;3.732;2023-02-21T04:43:35;58.85;;;18.13;;
59922;SDS011;45778;51.142;3.732;2023-02-21T04:46:00;57.00;;;18.20;;
59922;SDS011;45778;51.142;3.732;2023-02-21T04:48:26;54.38;;;18.38;;
59922;SDS011;45778;51.142;3.732;2023-02-21T04:50:52;56.65;;;18.45;;
59922;SDS011;45778;51.142;3.732;2023-02-21T04:53:18;44.25;;;16.33;;
59922;SDS011;45778;51.142;3.732;2023-02-21T04:55:44;56.60;;;18.45;;
59922;SDS011;45778;51.142;3.732;2023-02-21T04:58:09;58.75;;;18.33;;
59922;SDS011;45778;51.142;3.732;2023-02-21T05:00:35;54.65;;;17.63;;
59922;SDS011;45778;51.142;3.732;2023-02-21T05:03:01;50.63;;;18.02;;
59922;SDS011;45778;51.142;3.732;2023-02-21T05:05:26;46.17;;;16.60;;
59922;SDS011;45778;51.142;3.732;2023-02-21T05:07:52;55.13;;;17.98;;
59922;SDS011;45778;51.142;3.732;2023-02-21T05:10:18;61.40;;;20.13;;
59922;SDS011;45778;51.142;3.732;2023-02-21T05:12:44;57.65;;;20.13;;
59922;SDS011;45778;51.142;3.732;2023-02-21T05:15:09;56.97;;;19.83;;
59922;SDS011;45778;51.142;3.732;2023-02-21T05:17:36;56.58;;;20.10;;
59922;SDS011;45778;51.142;3.732;2023-02-21T05:20:03;61.65;;;18.45;;
59922;SDS011;45778;51.142;3.732;2023-02-21T05:22:35;54.67;;;19.50;;
59922;SDS011;45778;51.142;3.732;2023-02-21T05:25:06;57.15;;;18.52;;
59922;SDS011;45778;51.142;3.732;2023-02-21T05:27:38;57.25;;;18.80;;
59922;SDS011;45778;51.142;3.732;2023-02-21T05:30:03;57.35;;;19.63;;
59922;SDS011;45778;51.142;3.732;2023-02-21T05:32:29;62.53;;;19.20;;
59922;SDS011;45778;51.142;3.732;2023-02-21T05:34:55;63.70;;;19.75;;
59922;SDS011;45778;51.142;3.732;2023-02-21T05:37:21;64.38;;;19.83;;
59922;SDS011;45778;51.142;3.732;2023-02-21T05:39:47;65.03;;;20.05;;
59922;SDS011;45778;51.142;3.732;2023-02-21T05:42:13;69.75;;;20.40;;
59922;SDS011;45778;51.142;3.732;2023-02-21T05:44:38;58.15;;;18.17;;
59922;SDS011;45778;51.142;3.732;2023-02-21T05:47:04;58.95;;;18.38;;
59922;SDS011;45778;51.142;3.732;2023-02-21T05:49:33;66.68;;;19.90;;
59922;SDS011;45778;51.142;3.732;2023-02-21T05:51:59;54.33;;;18.45;;
59922;SDS011;45778;51.142;3.732;2023-02-21T05:54:24;62.33;;;19.40;;
59922;SDS011;45778;51.142;3.732;2023-02-21T05:56:51;59.42;;;19.08;;
59922;SDS011;45778;51.142;3.732;2023-02-21T05:59:18;55.65;;;18.85;;
59922;SDS011;45778;51.142;3.732;2023-02-21T06:01:44;63.53;;;19.23;;
59922;SDS011;45778;51.142;3.732;2023-02-21T06:04:11;61.88;;;17.52;;
59922;SDS011;45778;51.142;3.732;2023-02-21T06:06:37;59.97;;;18.17;;
59922;SDS011;45778;51.142;3.732;2023-02-21T06:09:03;53.85;;;18.05;;
59922;SDS011;45778;51.142;3.732;2023-02-21T06:11:30;63.15;;;18.25;;
59922;SDS011;45778;51.142;3.732;2023-02-21T06:13:58;57.30;;;18.42;;
59922;SDS011;45778;51.142;3.732;2023-02-21T06:16:30;51.65;;;16.63;;
59922;SDS011;45778;51.142;3.732;2023-02-21T06:18:58;56.92;;;17.52;;
59922;SDS011;45778;51.142;3.732;2023-02-21T06:21:23;51.50;;;15.80;;
59922;SDS011;45778;51.142;3.732;2023-02-21T06:23:49;50.08;;;17.20;;
59922;SDS011;45778;51.142;3.732;2023-02-21T06:26:16;56.70;;;19.17;;
59922;SDS011;45778;51.142;3.732;2023-02-21T06:28:42;56.97;;;17.45;;
59922;SDS011;45778;51.142;3.732;2023-02-21T06:31:08;55.58;;;17.38;;
59922;SDS011;45778;51.142;3.732;2023-02-21T06:33:34;48.13;;;15.88;;
59922;SDS011;45778;51.142;3.732;2023-02-21T06:36:11;50.75;;;17.50;;
59922;SDS011;45778;51.142;3.732;2023-02-21T06:38:38;46.97;;;15.48;;
59922;SDS011;45778;51.142;3.732;2023-02-21T06:41:04;49.50;;;17.25;;
59922;SDS011;45778;51.142;3.732;2023-02-21T06:43:32;61.47;;;18.05;;
59922;SDS011;45778;51.142;3.732;2023-02-21T06:46:00;55.17;;;18.10;;
59922;SDS011;45778;51.142;3.732;2023-02-21T06:48:26;60.22;;;17.15;;
59922;SDS011;45778;51.142;3.732;2023-02-21T06:50:52;54.30;;;16.85;;
59922;SDS011;45778;51.142;3.732;2023-02-21T06:53:18;52.78;;;16.70;;
59922;SDS011;45778;51.142;3.732;2023-02-21T06:55:44;49.70;;;17.23;;
59922;SDS011;45778;51.142;3.732;2023-02-21T06:58:09;46.42;;;15.90;;
59922;SDS011;45778;51.142;3.732;2023-02-21T07:00:35;49.20;;;15.65;;
59922;SDS011;45778;51.142;3.732;2023-02-21T07:03:01;54.40;;;17.65;;
59922;SDS011;45778;51.142;3.732;2023-02-21T07:05:27;51.95;;;16.00;;
59922;SDS011;45778;51.142;3.732;2023-02-21T07:07:53;48.53;;;14.88;;
59922;SDS011;45778;51.142;3.732;2023-02-21T07:10:19;40.42;;;14.63;;
59922;SDS011;45778;51.142;3.732;2023-02-21T07:12:44;42.33;;;16.10;;
59922;SDS011;45778;51.142;3.732;2023-02-21T07:15:10;51.63;;;16.00;;
59922;SDS011;45778;51.142;3.732;2023-02-21T07:17:36;33.28;;;12.10;;
59922;SDS011;45778;51.142;3.732;2023-02-21T07:20:02;45.22;;;14.88;;
59922;SDS011;45778;51.142;3.732;2023-02-21T07:22:28;43.45;;;14.80;;
59922;SDS011;45778;51.142;3.732;2023-02-21T07:24:54;35.90;;;12.85;;
59922;SDS011;45778;51.142;3.732;2023-02-21T07:27:21;43.97;;;13.85;;
59922;SDS011;45778;51.142;3.732;2023-02-21T07:29:47;40.38;;;13.10;;
59922;SDS011;45778;51.142;3.732;2023-02-21T07:32:14;42.13;;;12.50;;
59922;SDS011;45778;51.142;3.732;2023-02-21T07:34:41;36.47;;;11.93;;
59922;SDS011;45778;51.142;3.732;2023-02-21T07:37:07;31.90;;;11.38;;
59922;SDS011;45778;51.142;3.732;2023-02-21T07:39:33;31.08;;;11.70;;
59922;SDS011;45778;51.142;3.732;2023-02-21T07:41:59;17.95;;;7.50;;
59922;SDS011;45778;51.142;3.732;2023-02-21T07:44:25;16.75;;;6.60;;
59922;SDS011;45778;51.142;3.732;2023-02-21T07:46:50;15.77;;;6.18;;
59922;SDS011;45778;51.142;3.732;2023-02-21T07:49:16;16.90;;;5.72;;
59922;SDS011;45778;51.142;3.732;2023-02-21T07:51:42;18.65;;;7.10;;
59922;SDS011;45778;51.142;3.732;2023-02-21T07:54:08;20.88;;;7.45;;
59922;SDS011;45778;51.142;3.732;2023-02-21T07:56:33;20.38;;;7.95;;
59922;SDS011;45778;51.142;3.732;2023-02-21T07:58:59;15.57;;;6.22;;
59922;SDS011;45778;51.142;3.732;2023-02-21T08:01:25;17.35;;;6.38;;
59922;SDS011;45778;51.142;3.732;2023-02-21T08:03:51;15.38;;;6.70;;
59922;SDS011;45778;51.142;3.732;2023-02-21T08:06:17;17.17;;;6.68;;
59922;SDS011;45778;51.142;3.732;2023-02-21T08:08:43;19.48;;;7.75;;
59922;SDS011;45778;51.142;3.732;2023-02-21T08:11:09;24.63;;;8.07;;
59922;SDS011;45778;51.142;3.732;2023-02-21T08:13:35;21.13;;;8.13;;
59922;SDS011;45778;51.142;3.732;2023-02-21T08:16:01;25.40;;;11.23;;
59922;SDS011;45778;51.142;3.732;2023-02-21T08:18:27;24.48;;;10.10;;
59922;SDS011;45778;51.142;3.732;2023-02-21T08:20:53;29.95;;;13.80;;
59922;SDS011;45778;51.142;3.732;2023-02-21T08:23:20;25.75;;;10.57;;
59922;SDS011;45778;51.142;3.732;2023-02-21T08:25:46;23.55;;;9.10;;
59922;SDS011;45778;51.142;3.732;2023-02-21T08:28:13;25.50;;;10.98;;
59922;SDS011;45778;51.142;3.732;2023-02-21T08:30:39;28.25;;;10.85;;
59922;SDS011;45778;51.142;3.732;2023-02-21T08:33:05;26.08;;;10.77;;
59922;SDS011;45778;51.142;3.732;2023-02-21T08:35:30;32.05;;;13.68;;
59922;SDS011;45778;51.142;3.732;2023-02-21T08:37:58;30.30;;;11.50;;
59922;SDS011;45778;51.142;3.732;2023-02-21T08:40:27;28.30;;;11.57;;
59922;SDS011;45778;51.142;3.732;2023-02-21T08:42:57;28.10;;;12.20;;
59922;SDS011;45778;51.142;3.732;2023-02-21T08:45:25;28.70;;;12.52;;
59922;SDS011;45778;51.142;3.732;2023-02-21T08:47:52;37.75;;;14.85;;
59922;SDS011;45778;51.142;3.732;2023-02-21T08:50:19;35.55;;;13.85;;
59922;SDS011;45778;51.142;3.732;2023-02-21T08:52:47;39.75;;;14.43;;
59922;SDS011;45778;51.142;3.732;2023-02-21T08:55:17;42.13;;;14.50;;
59922;SDS011;45778;51.142;3.732;2023-02-21T08:57:43;45.38;;;15.85;;
59922;SDS011;45778;51.142;3.732;2023-02-21T09:00:12;41.45;;;14.80;;
59922;SDS011;45778;51.142;3.732;2023-02-21T09:02:39;44.78;;;16.73;;
59922;SDS011;45778;51.142;3.732;2023-02-21T09:05:08;45.45;;;15.50;;
59922;SDS011;45778;51.142;3.732;2023-02-21T09:07:37;49.73;;;16.37;;
59922;SDS011;45778;51.142;3.732;2023-02-21T09:10:04;47.13;;;15.60;;
59922;SDS011;45778;51.142;3.732;2023-02-21T09:12:31;39.78;;;15.05;;
59922;SDS011;45778;51.142;3.732;2023-02-21T09:14:57;41.80;;;14.07;;
59922;SDS011;45778;51.142;3.732;2023-02-21T09:17:22;38.60;;;13.60;;
59922;SDS011;45778;51.142;3.732;2023-02-21T09:19:48;40.03;;;13.13;;
59922;SDS011;45778;51.142;3.732;2023-02-21T09:22:14;38.30;;;13.68;;
59922;SDS011;45778;51.142;3.732;2023-02-21T09:24:41;42.42;;;14.25;;
59922;SDS011;45778;51.142;3.732;2023-02-21T09:27:07;41.05;;;13.50;;
59922;SDS011;45778;51.142;3.732;2023-02-21T09:29:33;38.80;;;14.32;;
59922;SDS011;45778;51.142;3.732;2023-02-21T09:32:01;38.40;;;14.23;;
59922;SDS011;45778;51.142;3.732;2023-02-21T09:34:28;43.05;;;15.85;;
59922;SDS011;45778;51.142;3.732;2023-02-21T09:36:54;36.50;;;14.63;;
59922;SDS011;45778;51.142;3.732;2023-02-21T09:39:20;33.60;;;14.13;;
59922;SDS011;45778;51.142;3.732;2023-02-21T09:41:47;33.97;;;14.55;;
59922;SDS011;45778;51.142;3.732;2023-02-21T09:44:23;35.90;;;13.73;;
59922;SDS011;45778;51.142;3.732;2023-02-21T09:46:53;33.63;;;13.02;;
59922;SDS011;45778;51.142;3.732;2023-02-21T09:51:52;29.40;;;12.95;;
59922;SDS011;45778;51.142;3.732;2023-02-21T09:56:50;30.33;;;13.00;;
59922;SDS011;45778;51.142;3.732;2023-02-21T09:59:17;34.55;;;14.38;;
59922;SDS011;45778;51.142;3.732;2023-02-21T10:10:34;32.97;;;13.55;;
59922;SDS011;45778;51.142;3.732;2023-02-21T10:18:27;21.13;;;9.32;;
59922;SDS011;45778;51.142;3.732;2023-02-21T10:21:15;21.42;;;8.63;;
59922;SDS011;45778;51.142;3.732;2023-02-21T10:23:53;27.33;;;10.55;;
59922;SDS011;45778;51.142;3.732;2023-02-21T10:26:28;30.73;;;12.77;;
59922;SDS011;45778;51.142;3.732;2023-02-21T10:28:56;28.63;;;11.75;;
59922;SDS011;45778;51.142;3.732;2023-02-21T10:31:34;24.55;;;11.25;;
59922;SDS011;45778;51.142;3.732;2023-02-21T10:34:06;21.92;;;9.50;;
59922;SDS011;45778;51.142;3.732;2023-02-21T10:36:47;20.95;;;9.85;;
59922;SDS011;45778;51.142;3.732;2023-02-21T10:39:16;23.70;;;10.13;;
59922;SDS011;45778;51.142;3.732;2023-02-21T10:41:44;22.05;;;10.63;;
59922;SDS011;45778;51.142;3.732;2023-02-21T10:47:12;23.67;;;11.00;;
59922;SDS011;45778;51.142;3.732;2023-02-21T10:49:39;25.48;;;11.07;;
59922;SDS011;45778;51.142;3.732;2023-02-21T10:54:40;25.58;;;11.48;;
59922;SDS011;45778;51.142;3.732;2023-02-21T10:57:07;24.25;;;11.30;;
59922;SDS011;45778;51.142;3.732;2023-02-21T10:59:38;26.25;;;11.32;;
59922;SDS011;45778;51.142;3.732;2023-02-21T11:02:27;22.00;;;10.95;;
59922;SDS011;45778;51.142;3.732;2023-02-21T11:05:07;29.73;;;13.38;;
59922;SDS011;45778;51.142;3.732;2023-02-21T11:07:34;26.35;;;13.63;;
59922;SDS011;45778;51.142;3.732;2023-02-21T11:10:00;25.70;;;12.35;;
59922;SDS011;45778;51.142;3.732;2023-02-21T11:12:26;25.85;;;12.15;;
59922;SDS011;45778;51.142;3.732;2023-02-21T11:17:25;27.52;;;13.88;;
59922;SDS011;45778;51.142;3.732;2023-02-21T11:22:40;25.40;;;13.00;;
59922;SDS011;45778;51.142;3.732;2023-02-21T11:27:36;23.00;;;12.57;;
59922;SDS011;45778;51.142;3.732;2023-02-21T11:30:10;24.45;;;12.43;;
59922;SDS011;45778;51.142;3.732;2023-02-21T11:32:41;19.05;;;9.05;;
59922;SDS011;45778;51.142;3.732;2023-02-21T11:37:55;19.95;;;10.93;;
59922;SDS011;45778;51.142;3.732;2023-02-21T11:40:30;17.83;;;9.50;;
59922;SDS011;45778;51.142;3.732;2023-02-21T11:43:11;19.37;;;9.17;;
59922;SDS011;45778;51.142;3.732;2023-02-21T11:49:21;19.42;;;11.40;;
59922;SDS011;45778;51.142;3.732;2023-02-21T11:52:01;22.20;;;11.38;;
59922;SDS011;45778;51.142;3.732;2023-02-21T11:54:30;21.05;;;12.68;;
59922;SDS011;45778;51.142;3.732;2023-02-21T11:57:01;22.10;;;13.20;;
59922;SDS011;45778;51.142;3.732;2023-02-21T12:11:05;20.88;;;13.15;;
59922;SDS011;45778;51.142;3.732;2023-02-21T12:22:35;15.82;;;9.93;;
59922;SDS011;45778;51.142;3.732;2023-02-21T12:25:28;16.38;;;11.38;;
59922;SDS011;45778;51.142;3.732;2023-02-21T12:33:54;13.30;;;8.73;;
59922;SDS011;45778;51.142;3.732;2023-02-21T12:36:50;16.80;;;9.93;;
59922;SDS011;45778;51.142;3.732;2023-02-21T12:50:42;14.98;;;9.23;;
59922;SDS011;45778;51.142;3.732;2023-02-21T12:53:11;16.63;;;10.18;;
59922;SDS011;45778;51.142;3.732;2023-02-21T12:55:39;16.15;;;9.70;;
59922;SDS011;45778;51.142;3.732;2023-02-21T12:58:30;16.60;;;9.95;;
59922;SDS011;45778;51.142;3.732;2023-02-21T13:01:06;17.02;;;10.85;;
59922;SDS011;45778;51.142;3.732;2023-02-21T13:15:04;15.30;;;10.05;;
59922;SDS011;45778;51.142;3.732;2023-02-21T13:17:47;15.60;;;9.18;;
59922;SDS011;45778;51.142;3.732;2023-02-21T13:20:17;15.85;;;9.27;;
59922;SDS011;45778;51.142;3.732;2023-02-21T13:28:52;14.75;;;9.98;;
59922;SDS011;45778;51.142;3.732;2023-02-21T13:31:20;15.00;;;9.65;;
59922;SDS011;45778;51.142;3.732;2023-02-21T13:33:55;16.45;;;10.35;;
59922;SDS011;45778;51.142;3.732;2023-02-21T13:36:28;12.48;;;8.95;;
59922;SDS011;45778;51.142;3.732;2023-02-21T13:39:49;18.52;;;10.25;;
59922;SDS011;45778;51.142;3.732;2023-02-21T13:42:18;15.60;;;9.52;;
59922;SDS011;45778;51.142;3.732;2023-02-21T13:44:51;15.13;;;10.27;;
59922;SDS011;45778;51.142;3.732;2023-02-21T13:47:27;15.73;;;9.77;;
59922;SDS011;45778;51.142;3.732;2023-02-21T13:53:19;15.48;;;9.57;;
59922;SDS011;45778;51.142;3.732;2023-02-21T14:01:14;14.82;;;9.27;;
59922;SDS011;45778;51.142;3.732;2023-02-21T14:03:46;14.90;;;10.23;;
59922;SDS011;45778;51.142;3.732;2023-02-21T14:06:32;16.80;;;10.20;;
59922;SDS011;45778;51.142;3.732;2023-02-21T14:09:06;16.08;;;9.82;;
59922;SDS011;45778;51.142;3.732;2023-02-21T14:11:37;16.30;;;10.55;;
59922;SDS011;45778;51.142;3.732;2023-02-21T14:14:28;15.52;;;10.88;;
59922;SDS011;45778;51.142;3.732;2023-02-21T14:17:03;15.82;;;10.77;;
59922;SDS011;45778;51.142;3.732;2023-02-21T14:19:41;15.52;;;10.60;;
59922;SDS011;45778;51.142;3.732;2023-02-21T14:22:28;12.60;;;8.95;;
59922;SDS011;45778;51.142;3.732;2023-02-21T14:25:05;14.63;;;9.35;;
59922;SDS011;45778;51.142;3.732;2023-02-21T14:27:39;14.73;;;9.15;;
59922;SDS011;45778;51.142;3.732;2023-02-21T14:35:13;15.82;;;10.88;;
59922;SDS011;45778;51.142;3.732;2023-02-21T15:08:11;16.63;;;11.50;;
59922;SDS011;45778;51.142;3.732;2023-02-21T15:10:43;15.85;;;10.90;;
59922;SDS011;45778;51.142;3.732;2023-02-21T15:16:10;15.60;;;10.40;;
59922;SDS011;45778;51.142;3.732;2023-02-21T15:18:39;16.55;;;11.38;;
59922;SDS011;45778;51.142;3.732;2023-02-21T15:23:35;17.38;;;11.98;;
59922;SDS011;45778;51.142;3.732;2023-02-21T15:26:35;15.05;;;11.57;;
59922;SDS011;45778;51.142;3.732;2023-02-21T15:31:42;17.77;;;11.07;;
59922;SDS011;45778;51.142;3.732;2023-02-21T15:34:16;19.20;;;12.35;;
59922;SDS011;45778;51.142;3.732;2023-02-21T15:37:01;16.52;;;11.60;;
59922;SDS011;45778;51.142;3.732;2023-02-21T15:39:37;18.42;;;12.43;;
59922;SDS011;45778;51.142;3.732;2023-02-21T15:42:07;18.25;;;13.20;;
59922;SDS011;45778;51.142;3.732;2023-02-21T15:44:43;18.13;;;13.10;;
59922;SDS011;45778;51.142;3.732;2023-02-21T15:47:14;19.88;;;12.77;;
59922;SDS011;45778;51.142;3.732;2023-02-21T15:49:57;18.67;;;13.13;;
59922;SDS011;45778;51.142;3.732;2023-02-21T15:52:42;15.80;;;12.32;;
59922;SDS011;45778;51.142;3.732;2023-02-21T15:55:31;18.50;;;13.57;;
59922;SDS011;45778;51.142;3.732;2023-02-21T16:00:40;20.95;;;13.20;;
59922;SDS011;45778;51.142;3.732;2023-02-21T16:19:40;21.45;;;14.55;;
59922;SDS011;45778;51.142;3.732;2023-02-21T16:22:10;22.17;;;16.05;;
59922;SDS011;45778;51.142;3.732;2023-02-21T16:27:35;23.63;;;16.15;;
59922;SDS011;45778;51.142;3.732;2023-02-21T16:30:02;24.33;;;17.10;;
59922;SDS011;45778;51.142;3.732;2023-02-21T16:32:29;24.95;;;16.58;;
59922;SDS011;45778;51.142;3.732;2023-02-21T16:34:55;22.25;;;16.45;;
59922;SDS011;45778;51.142;3.732;2023-02-21T16:37:22;20.83;;;15.82;;
59922;SDS011;45778;51.142;3.732;2023-02-21T16:39:48;24.52;;;17.63;;
59922;SDS011;45778;51.142;3.732;2023-02-21T16:42:14;24.75;;;16.63;;
59922;SDS011;45778;51.142;3.732;2023-02-21T16:44:43;25.30;;;18.02;;
59922;SDS011;45778;51.142;3.732;2023-02-21T16:47:12;25.20;;;18.67;;
59922;SDS011;45778;51.142;3.732;2023-02-21T16:49:40;29.80;;;18.48;;
59922;SDS011;45778;51.142;3.732;2023-02-21T16:52:08;25.75;;;17.40;;
59922;SDS011;45778;51.142;3.732;2023-02-21T16:54:38;25.40;;;16.67;;
59922;SDS011;45778;51.142;3.732;2023-02-21T16:57:03;23.80;;;15.70;;
59922;SDS011;45778;51.142;3.732;2023-02-21T16:59:29;21.70;;;15.13;;
59922;SDS011;45778;51.142;3.732;2023-02-21T17:01:55;24.83;;;16.38;;
59922;SDS011;45778;51.142;3.732;2023-02-21T17:04:22;29.02;;;15.85;;
59922;SDS011;45778;51.142;3.732;2023-02-21T17:06:52;26.10;;;17.02;;
59922;SDS011;45778;51.142;3.732;2023-02-21T17:09:25;27.60;;;17.48;;
59922;SDS011;45778;51.142;3.732;2023-02-21T17:11:51;27.70;;;17.42;;
59922;SDS011;45778;51.142;3.732;2023-02-21T17:14:18;27.65;;;17.38;;
59922;SDS011;45778;51.142;3.732;2023-02-21T17:16:45;26.95;;;16.17;;
59922;SDS011;45778;51.142;3.732;2023-02-21T17:19:14;25.48;;;16.98;;
59922;SDS011;45778;51.142;3.732;2023-02-21T17:21:42;25.60;;;16.60;;
59922;SDS011;45778;51.142;3.732;2023-02-21T17:24:10;28.15;;;17.52;;
59922;SDS011;45778;51.142;3.732;2023-02-21T17:26:37;25.77;;;18.30;;
59922;SDS011;45778;51.142;3.732;2023-02-21T17:29:03;30.88;;;19.02;;
59922;SDS011;45778;51.142;3.732;2023-02-21T17:31:29;29.75;;;18.40;;
59922;SDS011;45778;51.142;3.732;2023-02-21T17:33:55;29.55;;;19.60;;
59922;SDS011;45778;51.142;3.732;2023-02-21T17:36:22;29.23;;;18.95;;
59922;SDS011;45778;51.142;3.732;2023-02-21T17:38:48;32.97;;;20.13;;
59922;SDS011;45778;51.142;3.732;2023-02-21T17:41:14;41.20;;;26.92;;
59922;SDS011;45778;51.142;3.732;2023-02-21T17:43:40;31.60;;;20.25;;
59922;SDS011;45778;51.142;3.732;2023-02-21T17:46:10;32.63;;;20.75;;
59922;SDS011;45778;51.142;3.732;2023-02-21T17:48:39;26.23;;;16.50;;
59922;SDS011;45778;51.142;3.732;2023-02-21T17:51:05;30.25;;;21.33;;
59922;SDS011;45778;51.142;3.732;2023-02-21T17:53:31;29.27;;;17.23;;
59922;SDS011;45778;51.142;3.732;2023-02-21T17:55:57;27.05;;;17.33;;
59922;SDS011;45778;51.142;3.732;2023-02-21T17:58:27;32.25;;;20.20;;
59922;SDS011;45778;51.142;3.732;2023-02-21T18:00:54;27.02;;;17.45;;
59922;SDS011;45778;51.142;3.732;2023-02-21T18:03:21;26.42;;;16.70;;
59922;SDS011;45778;51.142;3.732;2023-02-21T18:05:47;24.35;;;15.55;;
59922;SDS011;45778;51.142;3.732;2023-02-21T18:08:13;31.92;;;19.80;;
59922;SDS011;45778;51.142;3.732;2023-02-21T18:10:39;27.65;;;16.88;;
59922;SDS011;45778;51.142;3.732;2023-02-21T18:13:10;26.88;;;17.30;;
59922;SDS011;45778;51.142;3.732;2023-02-21T18:15:43;25.33;;;17.00;;
59922;SDS011;45778;51.142;3.732;2023-02-21T18:18:09;28.45;;;18.75;;
59922;SDS011;45778;51.142;3.732;2023-02-21T18:20:35;36.45;;;21.27;;